Main page
METAR-TAF:

METAR-TAF

Airports :

Stockholm Arlanda Airport

Stockholm-Arlanda, Sweden

latitude: 59-39N, longitude: 017-57E, elevation: 38 m

Current weather observation

The report was made 33 minutes ago, at 04:50 UTC
Wind 2 kt from the South/Southwest
Temperature 0°C
Humidity 80%
Pressure 1033 hPa
Visibility 10 km or more
no clouds below 1500 m and no cumulonimbus

METAR: ESSA 200450Z 20002KT CAVOK M00/M03 Q1033 NOSIG

Time: 07:23 (05:23 UTC)

Forecast

The report was made 5 hours and 53 minutes ago, at 23:30 UTC
Forecast valid from 20 at 00 UTC to 20 at 24 UTC
Wind 5 kt from the North
Visibility 10 km or more
no clouds below 1500 m and no cumulonimbus
Becoming
from 20 at 13 UTC to 20 at 15 UTC
Wind 10 kt from the South/Southeast
Becoming
from 20 at 18 UTC to 20 at 20 UTC
Wind 3 kt from the West/Southwest

TAF: ESSA 192330Z 2000/2024 01005KT CAVOK BECMG 2013/2015 15010KT BECMG 2018/2020 24003KT

Weather observations and forecasts of more than 4000 airports (METAR and TAF reports).

The available stations are represented by yellow and red dots on the map.

Hover mouse over dot to see the name of the station.

Then click to see weather observations and forecasts.

To change the map : click on the green buttons with a black cross to zoom in, on the green button with a dash to zoom out, or on the green arrows for adjacent maps.


METAR-TAF: